Time;durP1;ratioP1;P1;durP2;ratioP2;P2;SDS_P1;SDS_P2;PMS_P1;PMS_P2;Temp;Humidity;BMP_temperature;BMP_pressure;BME280_temperature;BME280_humidity;BME280_pressure;Samples;Min_cycle;Max_cycle;Signal;HPM_P1;HPM_P2
2021/03/13 00:00:36;;;;;;;5.60;1.77;;;6.70;91.90;;;;;;5023185;28;20116;-80
2021/03/13 00:03:02;;;;;;;6.15;0.90;;;6.70;91.90;;;;;;5037786;28;20102;-80
2021/03/13 00:05:32;;;;;;;3.35;0.93;;;6.70;91.80;;;;;;5055113;28;20133;-79
2021/03/13 00:07:58;;;;;;;6.38;1.48;;;6.70;91.80;;;;;;5042950;28;20060;-79
2021/03/13 00:10:23;;;;;;;9.50;1.10;;;6.70;91.70;;;;;;5010374;28;20189;-80
2021/03/13 00:12:49;;;;;;;13.05;1.48;;;6.70;91.80;;;;;;5020622;28;20028;-80
2021/03/13 00:15:15;;;;;;;4.00;0.90;;;6.70;91.80;;;;;;5021458;28;20029;-79
2021/03/13 00:17:45;;;;;;;5.38;0.85;;;6.70;91.80;;;;;;5013177;28;20052;-79
2021/03/13 00:20:11;;;;;;;6.35;0.95;;;6.70;91.70;;;;;;5028257;28;20048;-79
2021/03/13 00:22:37;;;;;;;3.53;0.75;;;6.70;91.80;;;;;;5035964;28;20032;-79
2021/03/13 00:25:04;;;;;;;16.02;1.45;;;6.70;91.70;;;;;;5035073;28;20507;-79
2021/03/13 00:27:29;;;;;;;2.72;0.57;;;6.70;91.80;;;;;;5030099;28;20048;-79
2021/03/13 00:29:55;;;;;;;7.75;2.33;;;6.70;91.80;;;;;;5019839;28;20040;-79
2021/03/13 00:32:20;;;;;;;2.80;0.82;;;6.70;91.80;;;;;;5026246;28;20357;-79
2021/03/13 00:34:46;;;;;;;1.45;0.80;;;6.70;91.70;;;;;;5027433;28;20025;-79
2021/03/13 00:37:11;;;;;;;20.60;1.30;;;6.70;91.80;;;;;;5039415;28;20428;-79
2021/03/13 00:39:37;;;;;;;6.65;1.35;;;6.70;91.80;;;;;;5040033;28;20021;-79
2021/03/13 00:42:03;;;;;;;5.80;0.73;;;6.70;92.20;;;;;;5018648;28;20546;-79
2021/03/13 00:44:28;;;;;;;1.52;0.43;;;6.70;91.90;;;;;;5012530;28;20055;-79
2021/03/13 00:46:54;;;;;;;3.00;0.95;;;6.70;91.90;;;;;;5012720;28;20033;-79
2021/03/13 00:49:19;;;;;;;4.22;1.35;;;6.70;91.90;;;;;;5039425;28;20474;-79
2021/03/13 00:51:45;;;;;;;7.57;1.40;;;6.70;91.80;;;;;;5041833;28;20028;-80
2021/03/13 00:54:10;;;;;;;11.18;1.60;;;6.70;91.90;;;;;;5021020;28;20465;-79
2021/03/13 00:56:36;;;;;;;5.07;1.88;;;6.70;92.00;;;;;;5024604;28;20029;-80
2021/03/13 00:59:01;;;;;;;4.78;1.15;;;6.70;92.00;;;;;;5011005;28;20036;-79
2021/03/13 01:01:27;;;;;;;2.35;0.82;;;6.70;92.20;;;;;;5038398;28;20076;-79
2021/03/13 01:03:52;;;;;;;3.13;0.93;;;6.70;92.30;;;;;;5038622;28;20024;-79
2021/03/13 01:06:19;;;;;;;6.43;1.63;;;6.70;92.30;;;;;;5016545;28;20249;-79
2021/03/13 01:08:44;;;;;;;3.58;0.70;;;6.70;92.40;;;;;;5038735;28;20036;-79
2021/03/13 01:11:10;;;;;;;5.95;1.20;;;6.70;92.60;;;;;;5023959;28;20499;-79
2021/03/13 01:13:35;;;;;;;2.60;0.40;;;6.70;92.80;;;;;;5032911;28;20373;-80
2021/03/13 01:16:01;;;;;;;4.78;1.35;;;6.70;92.90;;;;;;5006372;28;20392;-79
2021/03/13 01:18:27;;;;;;;10.55;1.52;;;6.70;92.90;;;;;;5034300;28;20480;-79
2021/03/13 01:20:53;;;;;;;5.25;1.08;;;6.70;93.00;;;;;;5031162;28;20027;-79
2021/03/13 01:23:18;;;;;;;2.65;1.00;;;6.70;93.00;;;;;;5013002;28;20021;-79
2021/03/13 01:25:44;;;;;;;6.82;1.30;;;6.70;93.00;;;;;;5051928;28;20096;-79
2021/03/13 01:28:10;;;;;;;4.13;0.90;;;6.70;93.20;;;;;;5048147;28;20045;-79
2021/03/13 01:30:36;;;;;;;7.25;1.20;;;6.70;93.10;;;;;;5033861;28;20055;-80
2021/03/13 01:33:01;;;;;;;4.43;1.63;;;6.60;93.10;;;;;;5047187;28;20480;-79
2021/03/13 01:35:27;;;;;;;5.78;1.95;;;6.70;93.10;;;;;;5047183;28;20060;-79
2021/03/13 01:37:53;;;;;;;10.20;1.30;;;6.60;93.30;;;;;;5051956;28;20118;-79
2021/03/13 01:40:19;;;;;;;3.63;1.30;;;6.60;93.30;;;;;;5019672;28;20033;-79
2021/03/13 01:42:46;;;;;;;5.18;0.90;;;6.60;93.30;;;;;;5023658;28;20103;-79
2021/03/13 01:45:12;;;;;;;4.15;1.60;;;6.60;93.50;;;;;;5021396;28;20040;-79
2021/03/13 01:47:37;;;;;;;5.90;1.30;;;6.60;93.60;;;;;;5031314;28;20044;-79
2021/03/13 01:50:05;;;;;;;2.65;0.88;;;6.60;93.80;;;;;;5048804;28;20041;-78
2021/03/13 01:52:31;;;;;;;2.85;1.05;;;6.60;94.10;;;;;;5030127;28;20124;-79
2021/03/13 01:54:57;;;;;;;3.95;0.52;;;6.60;94.30;;;;;;5024953;28;20040;-80
2021/03/13 01:57:22;;;;;;;9.73;1.05;;;6.50;94.30;;;;;;5032643;28;20036;-79
2021/03/13 01:59:48;;;;;;;1.90;1.08;;;6.50;94.50;;;;;;5037002;28;20036;-80
2021/03/13 02:02:14;;;;;;;4.63;1.65;;;6.50;94.40;;;;;;5038792;28;20037;-81
2021/03/13 02:04:40;;;;;;;6.93;1.92;;;6.50;94.70;;;;;;5046979;28;20037;-81
2021/03/13 02:07:25;;;;;;;4.15;1.85;;;6.50;94.70;;;;;;5019868;28;20112;-81
2021/03/13 02:10:02;;;;;;;14.93;2.28;;;6.50;94.90;;;;;;5014620;28;20102;-82
2021/03/13 02:12:49;;;;;;;4.47;2.28;;;6.40;95.00;;;;;;5040427;28;20442;-82
2021/03/13 02:15:21;;;;;;;4.50;1.58;;;6.40;95.10;;;;;;5052575;28;20090;-82
2021/03/13 02:17:52;;;;;;;5.65;1.67;;;6.40;95.20;;;;;;5032677;28;20036;-81
2021/03/13 02:20:30;;;;;;;2.67;1.30;;;6.30;95.40;;;;;;5022370;28;20057;-82
2021/03/13 02:22:55;;;;;;;7.07;2.50;;;6.30;95.50;;;;;;5042249;28;20485;-81
2021/03/13 02:25:29;;;;;;;5.28;1.45;;;6.30;95.70;;;;;;5008162;28;20082;-82
2021/03/13 02:28:04;;;;;;;1.92;1.45;;;6.30;95.60;;;;;;5048966;28;20396;-81
2021/03/13 02:30:29;;;;;;;6.50;2.70;;;6.30;95.70;;;;;;5014331;28;20034;-81
2021/03/13 02:33:03;;;;;;;5.55;2.67;;;6.20;95.70;;;;;;5010192;28;20029;-81
2021/03/13 02:35:31;;;;;;;3.25;1.80;;;6.20;95.80;;;;;;5035958;28;20231;-81
2021/03/13 02:38:02;;;;;;;8.35;1.77;;;6.20;96.00;;;;;;5051562;28;20041;-81
2021/03/13 02:40:28;;;;;;;5.18;1.42;;;6.20;96.10;;;;;;5024536;28;20040;-81
2021/03/13 02:42:55;;;;;;;3.75;2.13;;;6.10;96.00;;;;;;5011919;28;20508;-81
2021/03/13 02:45:22;;;;;;;6.82;3.17;;;6.10;96.00;;;;;;5010868;28;20074;-81
2021/03/13 02:47:47;;;;;;;4.50;2.42;;;6.20;96.10;;;;;;5049447;28;20028;-82
2021/03/13 02:50:13;;;;;;;3.05;1.67;;;6.10;96.10;;;;;;5042397;28;20508;-81
2021/03/13 02:52:39;;;;;;;5.78;2.53;;;6.10;96.20;;;;;;5040995;28;20033;-81
2021/03/13 02:55:05;;;;;;;7.38;2.65;;;6.10;96.20;;;;;;5039217;28;20036;-81
2021/03/13 02:57:31;;;;;;;5.88;2.20;;;6.10;96.30;;;;;;5012316;28;20033;-82
2021/03/13 02:59:56;;;;;;;2.60;1.52;;;6.10;96.30;;;;;;5038990;28;20385;-82
2021/03/13 03:02:22;;;;;;;3.33;2.15;;;6.00;96.40;;;;;;5011400;28;20036;-82
2021/03/13 03:04:47;;;;;;;4.20;1.58;;;6.10;96.20;;;;;;5040343;28;20033;-82
2021/03/13 03:07:13;;;;;;;7.18;2.00;;;6.00;96.20;;;;;;5007453;28;20029;-81
2021/03/13 03:09:39;;;;;;;1.52;1.25;;;6.00;96.50;;;;;;5035587;28;20055;-81
2021/03/13 03:12:05;;;;;;;2.78;1.58;;;6.00;96.50;;;;;;5016444;28;20477;-81
2021/03/13 03:14:31;;;;;;;1.83;1.10;;;6.00;96.60;;;;;;5033480;28;20088;-81
2021/03/13 03:16:58;;;;;;;5.60;1.38;;;6.00;96.60;;;;;;5053729;28;20029;-81
2021/03/13 03:19:24;;;;;;;6.07;1.80;;;6.00;96.60;;;;;;5015907;28;20416;-81
2021/03/13 03:21:49;;;;;;;2.67;1.95;;;6.00;96.70;;;;;;5053156;28;20027;-82
2021/03/13 03:24:15;;;;;;;5.65;1.55;;;5.90;96.70;;;;;;5059296;28;20021;-81
2021/03/13 03:26:41;;;;;;;3.80;1.33;;;6.00;96.80;;;;;;5056538;28;20110;-81
2021/03/13 03:29:09;;;;;;;4.10;0.85;;;6.00;96.80;;;;;;5006962;28;20042;-82
2021/03/13 03:31:35;;;;;;;5.13;1.00;;;6.00;96.70;;;;;;5008307;28;20175;-81
2021/03/13 03:34:01;;;;;;;1.77;1.45;;;6.00;96.80;;;;;;5019775;28;20120;-81
2021/03/13 03:36:26;;;;;;;5.82;2.70;;;5.90;96.90;;;;;;5033416;28;20017;-81
2021/03/13 03:38:54;;;;;;;2.30;2.10;;;5.90;96.80;;;;;;5039558;28;20464;-82
2021/03/13 03:41:20;;;;;;;3.95;1.77;;;5.90;97.20;;;;;;5014820;28;20025;-81
2021/03/13 03:43:49;;;;;;;4.82;2.15;;;6.00;96.80;;;;;;5021857;28;20036;-82
2021/03/13 03:46:15;;;;;;;2.90;1.60;;;5.90;96.80;;;;;;5046835;28;20481;-81
2021/03/13 03:48:40;;;;;;;3.65;1.83;;;5.90;97.00;;;;;;5022206;28;20039;-81
2021/03/13 03:51:10;;;;;;;2.05;1.00;;;5.90;97.00;;;;;;5034923;28;20041;-80
2021/03/13 03:53:40;;;;;;;2.08;1.60;;;5.90;97.00;;;;;;5011744;28;20492;-81
2021/03/13 03:56:06;;;;;;;4.28;1.08;;;5.90;97.10;;;;;;5033281;28;20033;-81
2021/03/13 03:58:43;;;;;;;2.30;1.92;;;5.90;97.00;;;;;;5028680;28;20032;-81
2021/03/13 04:01:09;;;;;;;2.67;1.55;;;5.80;97.10;;;;;;5032984;28;20488;-81
2021/03/13 04:03:53;;;;;;;2.67;1.90;;;5.80;97.10;;;;;;5024913;28;20032;-81
2021/03/13 04:06:19;;;;;;;5.60;1.58;;;5.90;97.20;;;;;;5028779;28;20108;-81
2021/03/13 04:08:45;;;;;;;2.03;1.35;;;5.80;97.20;;;;;;5017345;28;20109;-80
2021/03/13 04:11:19;;;;;;;1.40;1.30;;;5.80;97.20;;;;;;5037706;28;20405;-81
2021/03/13 04:13:45;;;;;;;3.63;0.70;;;5.90;97.20;;;;;;5036612;28;20115;-80
2021/03/13 04:16:11;;;;;;;2.10;1.27;;;5.90;97.30;;;;;;5029192;28;20037;-81
2021/03/13 04:18:36;;;;;;;3.05;0.85;;;5.80;97.30;;;;;;5029634;28;20024;-81
2021/03/13 04:21:02;;;;;;;2.25;0.85;;;5.90;97.30;;;;;;5039732;28;20029;-81
2021/03/13 04:23:28;;;;;;;1.85;1.25;;;5.80;97.30;;;;;;5040436;28;20047;-81
2021/03/13 04:25:53;;;;;;;2.40;0.93;;;5.80;97.30;;;;;;5055472;28;20037;-81
2021/03/13 04:28:19;;;;;;;3.40;0.88;;;5.80;97.20;;;;;;5010074;28;20102;-81
2021/03/13 04:30:45;;;;;;;2.70;1.08;;;5.80;97.20;;;;;;5035160;28;20045;-81
2021/03/13 04:33:11;;;;;;;3.33;1.35;;;5.90;97.20;;;;;;5026048;28;20401;-82
2021/03/13 04:35:36;;;;;;;0.93;0.80;;;5.90;97.30;;;;;;5027297;28;20037;-81
2021/03/13 04:38:02;;;;;;;1.60;0.50;;;5.90;97.30;;;;;;5051355;28;20038;-81
2021/03/13 04:40:27;;;;;;;0.70;0.55;;;5.90;97.40;;;;;;5016243;28;20030;-82
2021/03/13 04:42:53;;;;;;;2.58;1.25;;;5.90;97.30;;;;;;5022122;28;20034;-81
2021/03/13 04:45:18;;;;;;;0.70;0.60;;;5.90;97.50;;;;;;5009906;28;20061;-81
2021/03/13 04:47:48;;;;;;;1.85;0.70;;;5.90;97.40;;;;;;5030089;28;20075;-81
2021/03/13 04:50:16;;;;;;;0.73;0.30;;;5.90;97.40;;;;;;5010602;28;20099;-81
2021/03/13 04:52:42;;;;;;;1.08;0.60;;;5.90;97.40;;;;;;5050294;28;20067;-81
2021/03/13 04:55:08;;;;;;;3.28;1.05;;;5.90;97.60;;;;;;5019675;28;20049;-82
2021/03/13 04:57:33;;;;;;;3.45;0.73;;;5.90;97.70;;;;;;5051649;28;20062;-81
2021/03/13 04:59:59;;;;;;;1.48;0.52;;;5.90;97.80;;;;;;5036895;28;20025;-81
2021/03/13 05:02:25;;;;;;;1.02;0.77;;;5.90;97.70;;;;;;5016472;28;20033;-82
2021/03/13 05:04:51;;;;;;;1.20;0.52;;;5.90;97.70;;;;;;5012631;28;20029;-81
2021/03/13 05:07:16;;;;;;;0.65;0.43;;;5.90;97.80;;;;;;5017524;28;21524;-84
2021/03/13 05:09:42;;;;;;;4.40;1.15;;;5.90;97.70;;;;;;5012399;28;20089;-83
2021/03/13 05:12:08;;;;;;;2.10;0.90;;;5.90;97.80;;;;;;5014951;28;20389;-81
2021/03/13 05:14:34;;;;;;;1.00;0.65;;;5.90;97.90;;;;;;5039786;28;20032;-84
2021/03/13 05:17:01;;;;;;;0.85;0.50;;;6.00;97.90;;;;;;5016928;28;20025;-82
2021/03/13 05:19:27;;;;;;;0.70;0.52;;;6.00;97.80;;;;;;5042652;28;20080;-86
2021/03/13 05:21:53;;;;;;;1.98;0.70;;;5.90;97.80;;;;;;4996504;28;20025;-82
2021/03/13 05:24:19;;;;;;;4.15;0.73;;;5.90;98.00;;;;;;5014454;28;21362;-81
2021/03/13 05:26:44;;;;;;;3.97;0.60;;;6.00;98.00;;;;;;5028048;28;20036;-81
2021/03/13 05:29:10;;;;;;;0.60;0.38;;;5.90;97.90;;;;;;5025889;28;20398;-84
2021/03/13 05:31:36;;;;;;;1.60;0.45;;;6.00;98.00;;;;;;4997823;28;20041;-83
2021/03/13 05:34:02;;;;;;;4.07;0.88;;;6.00;97.90;;;;;;5013792;28;20435;-81
2021/03/13 05:36:30;;;;;;;0.45;0.28;;;6.00;97.90;;;;;;5016888;28;20060;-83
2021/03/13 05:38:55;;;;;;;1.17;0.65;;;6.10;98.00;;;;;;5034560;28;20046;-83
2021/03/13 05:41:21;;;;;;;1.63;0.57;;;6.00;98.00;;;;;;5002862;28;20037;-82
2021/03/13 05:43:46;;;;;;;0.70;0.43;;;6.00;98.00;;;;;;5017839;28;20502;-83
2021/03/13 05:46:12;;;;;;;0.63;0.63;;;6.10;98.10;;;;;;5004923;28;20049;-82
2021/03/13 05:48:38;;;;;;;1.33;0.30;;;6.00;97.90;;;;;;5025942;28;20398;-83
2021/03/13 05:51:03;;;;;;;2.35;0.68;;;6.10;98.10;;;;;;4674513;28;9999740;-83
2021/03/13 05:53:30;;;;;;;1.40;0.30;;;6.10;98.00;;;;;;5014569;28;20036;-83
2021/03/13 05:55:56;;;;;;;1.10;0.55;;;6.10;97.90;;;;;;5020412;28;20095;-83
2021/03/13 05:58:22;;;;;;;0.68;0.63;;;6.10;98.00;;;;;;5016131;28;20524;-83
2021/03/13 06:00:47;;;;;;;1.88;0.50;;;6.10;98.00;;;;;;5005360;28;20409;-83
2021/03/13 06:03:13;;;;;;;1.65;0.50;;;6.10;98.10;;;;;;5024456;28;20064;-82
2021/03/13 06:05:40;;;;;;;2.67;0.75;;;6.10;98.50;;;;;;5040885;28;20119;-83
2021/03/13 06:08:29;;;;;;;1.42;0.70;;;6.20;98.30;;;;;;5013699;28;20029;-83
2021/03/13 06:10:55;;;;;;;2.10;0.60;;;6.20;98.10;;;;;;5043119;28;20474;-82
2021/03/13 06:13:23;;;;;;;1.58;0.52;;;6.20;98.10;;;;;;5021703;28;20078;-82
2021/03/13 06:15:48;;;;;;;1.55;0.63;;;6.20;98.20;;;;;;5018528;28;20044;-83
2021/03/13 06:18:14;;;;;;;1.27;0.38;;;6.20;98.20;;;;;;5004655;28;20465;-81
2021/03/13 06:20:40;;;;;;;0.55;0.20;;;6.30;98.30;;;;;;5036898;28;20060;-83
2021/03/13 06:23:08;;;;;;;0.38;0.22;;;6.30;98.30;;;;;;5016335;28;20119;-81
2021/03/13 06:25:34;;;;;;;1.85;0.68;;;6.30;98.30;;;;;;5050241;28;20488;-82
2021/03/13 06:28:03;;;;;;;0.60;0.45;;;6.30;98.40;;;;;;5016483;28;20064;-82
2021/03/13 06:30:33;;;;;;;0.40;0.30;;;6.30;98.30;;;;;;5063020;28;20060;-82
2021/03/13 06:32:59;;;;;;;1.83;0.40;;;6.30;98.40;;;;;;5017706;28;20128;-81
2021/03/13 06:35:29;;;;;;;0.38;0.30;;;6.40;98.40;;;;;;5008976;28;20116;-83
2021/03/13 06:37:56;;;;;;;3.08;0.40;;;6.40;98.30;;;;;;5034903;28;20037;-81
2021/03/13 06:40:28;;;;;;;3.05;0.88;;;6.40;98.40;;;;;;5025801;28;20033;-82
2021/03/13 06:42:54;;;;;;;3.08;0.40;;;6.40;98.50;;;;;;5058234;28;20675;-82
2021/03/13 06:45:20;;;;;;;1.08;0.40;;;6.50;98.30;;;;;;5044318;28;20033;-82
2021/03/13 06:47:45;;;;;;;2.33;0.50;;;6.50;98.30;;;;;;5041381;28;20048;-82
2021/03/13 06:50:28;;;;;;;2.67;0.70;;;6.50;98.50;;;;;;5031663;28;20381;-82
2021/03/13 06:53:09;;;;;;;1.27;0.57;;;6.50;98.50;;;;;;5012628;28;20034;-82
2021/03/13 06:55:34;;;;;;;3.13;0.45;;;6.50;98.50;;;;;;5054723;28;20028;-82
2021/03/13 06:58:09;;;;;;;1.73;0.32;;;6.50;98.50;;;;;;5014453;28;20437;-82
2021/03/13 07:00:36;;;;;;;3.35;0.60;;;6.50;98.50;;;;;;5020450;28;20075;-81
2021/03/13 07:03:08;;;;;;;1.95;0.22;;;6.60;98.40;;;;;;5040160;28;20055;-82
2021/03/13 07:05:34;;;;;;;0.52;0.30;;;6.50;98.30;;;;;;5039051;28;20040;-82
2021/03/13 07:08:21;;;;;;;0.20;0.13;;;6.60;98.40;;;;;;5051120;28;20443;-82
2021/03/13 07:10:47;;;;;;;1.15;0.43;;;6.60;98.50;;;;;;5019388;28;20037;-82
2021/03/13 07:13:39;;;;;;;1.25;0.22;;;6.60;98.40;;;;;;5027701;28;20112;-82
2021/03/13 07:16:38;;;;;;;3.33;0.20;;;6.60;98.40;;;;;;5044834;28;20037;-83
2021/03/13 07:19:08;;;;;;;0.28;0.20;;;6.60;98.40;;;;;;5050286;28;20491;-82
2021/03/13 07:21:35;;;;;;;0.20;0.20;;;6.60;98.40;;;;;;5027308;28;20033;-83
2021/03/13 07:24:09;;;;;;;1.55;0.50;;;6.70;98.30;;;;;;5017789;28;20044;-82
2021/03/13 07:26:36;;;;;;;0.73;0.22;;;6.70;98.40;;;;;;5016687;28;20167;-82
2021/03/13 07:29:02;;;;;;;1.50;0.10;;;6.70;98.30;;;;;;5023649;28;20060;-82
2021/03/13 07:31:30;;;;;;;0.15;0.10;;;6.80;98.30;;;;;;5017836;28;20033;-83
2021/03/13 07:33:59;;;;;;;1.15;0.55;;;6.80;98.30;;;;;;5030221;28;20067;-84
2021/03/13 07:36:24;;;;;;;1.00;0.50;;;6.80;98.30;;;;;;5008981;28;20539;-83
2021/03/13 07:38:50;;;;;;;0.63;0.43;;;6.80;98.30;;;;;;5021102;28;20147;-82
2021/03/13 07:41:16;;;;;;;3.22;0.32;;;6.80;98.30;;;;;;5030348;28;20040;-82
2021/03/13 07:43:42;;;;;;;0.70;0.40;;;6.90;98.40;;;;;;5036253;28;20402;-82
2021/03/13 07:46:09;;;;;;;1.85;0.40;;;6.80;97.80;;;;;;5009242;28;20030;-82
2021/03/13 07:48:41;;;;;;;1.25;0.32;;;6.70;97.70;;;;;;5013778;28;20174;-84
2021/03/13 07:51:08;;;;;;;1.48;0.17;;;6.70;97.30;;;;;;5014075;28;20037;-84
2021/03/13 07:53:39;;;;;;;1.02;0.47;;;6.60;97.30;;;;;;5039702;28;20253;-84
2021/03/13 07:56:07;;;;;;;8.65;0.38;;;6.60;97.10;;;;;;5006526;28;20036;-84
2021/03/13 07:58:32;;;;;;;3.88;0.20;;;6.50;97.10;;;;;;5021723;28;20033;-83
2021/03/13 08:00:59;;;;;;;5.80;0.70;;;6.50;97.10;;;;;;5012934;28;20025;-84
2021/03/13 08:03:28;;;;;;;0.47;0.22;;;6.50;96.90;;;;;;5015870;28;20089;-84
2021/03/13 08:06:15;;;;;;;0.73;0.22;;;6.50;96.90;;;;;;5061056;28;20037;-84
2021/03/13 08:08:41;;;;;;;0.20;0.13;;;6.50;96.80;;;;;;5044013;28;20086;-83
2021/03/13 08:11:08;;;;;;;0.75;0.20;;;6.40;96.60;;;;;;5052130;28;20029;-83
2021/03/13 08:13:39;;;;;;;0.82;0.45;;;6.50;96.60;;;;;;5024737;28;20040;-83
2021/03/13 08:16:12;;;;;;;0.40;0.30;;;6.40;96.30;;;;;;5049974;28;20058;-83
2021/03/13 08:18:39;;;;;;;1.40;0.55;;;6.40;96.20;;;;;;5041040;28;20036;-82
2021/03/13 08:21:20;;;;;;;0.45;0.13;;;6.40;95.90;;;;;;5016460;28;20060;-83
2021/03/13 08:23:49;;;;;;;1.05;0.50;;;6.40;96.00;;;;;;5054507;28;20029;-82
2021/03/13 08:26:14;;;;;;;1.83;0.50;;;6.40;95.90;;;;;;5006227;28;20037;-82
2021/03/13 08:28:46;;;;;;;0.47;0.30;;;6.40;95.70;;;;;;5032900;28;20689;-81
2021/03/13 08:31:32;;;;;;;1.83;0.30;;;6.40;95.70;;;;;;5047452;28;20128;-80
2021/03/13 08:33:58;;;;;;;3.17;0.38;;;6.40;95.60;;;;;;5045134;28;20025;-82
2021/03/13 08:36:25;;;;;;;1.00;0.38;;;6.50;95.30;;;;;;5053452;28;20124;-83
2021/03/13 08:38:57;;;;;;;1.17;0.43;;;6.50;95.10;;;;;;5036510;28;20136;-82
2021/03/13 08:41:48;;;;;;;1.48;0.43;;;6.50;94.90;;;;;;5045511;28;20445;-83
2021/03/13 08:44:33;;;;;;;1.52;0.60;;;6.50;94.90;;;;;;5039556;28;20068;-82
2021/03/13 08:47:05;;;;;;;5.53;0.35;;;6.50;94.80;;;;;;5048549;28;20044;-81
2021/03/13 08:49:30;;;;;;;3.35;0.38;;;6.60;94.80;;;;;;5051813;28;20033;-83
2021/03/13 08:52:08;;;;;;;3.67;0.55;;;6.70;94.80;;;;;;5050722;28;20204;-83
2021/03/13 08:54:46;;;;;;;1.85;0.50;;;6.70;94.60;;;;;;5041161;28;20456;-81
2021/03/13 08:57:12;;;;;;;2.05;0.28;;;6.70;94.80;;;;;;5050286;28;20469;-79
2021/03/13 08:59:39;;;;;;;1.35;0.43;;;6.70;94.30;;;;;;5039271;28;20123;-80
2021/03/13 09:02:16;;;;;;;4.50;0.30;;;6.70;94.10;;;;;;5049158;28;20093;-83
2021/03/13 09:04:43;;;;;;;2.78;0.20;;;6.80;94.50;;;;;;5025931;28;20044;-85
2021/03/13 09:07:09;;;;;;;3.50;0.55;;;6.80;94.30;;;;;;5012760;28;20581;-81
2021/03/13 09:09:36;;;;;;;2.05;0.20;;;6.80;94.00;;;;;;5035793;28;20029;-83
2021/03/13 09:12:07;;;;;;;2.83;0.30;;;6.80;93.70;;;;;;5009898;28;20026;-82
2021/03/13 09:14:39;;;;;;;9.85;0.65;;;6.90;93.90;;;;;;5040019;28;20112;-82
2021/03/13 09:17:13;;;;;;;5.78;0.93;;;7.00;94.10;;;;;;5004746;28;20090;-82
2021/03/13 09:19:38;;;;;;;1.95;0.20;;;7.00;94.30;;;;;;4662015;28;9999999;-80
2021/03/13 09:22:11;;;;;;;3.85;0.40;;;7.00;93.80;;;;;;5020116;28;20495;-82
2021/03/13 09:24:37;;;;;;;1.88;0.55;;;7.00;93.60;;;;;;5010204;28;20041;-82
2021/03/13 09:27:03;;;;;;;4.50;0.55;;;7.10;93.90;;;;;;5033306;28;20396;-82
2021/03/13 09:29:34;;;;;;;1.75;0.40;;;7.10;93.80;;;;;;5029279;28;20371;-82
2021/03/13 09:32:03;;;;;;;0.80;0.40;;;7.10;93.80;;;;;;5016532;28;20037;-83
2021/03/13 09:34:30;;;;;;;2.78;0.25;;;7.20;93.80;;;;;;5019136;28;20037;-81
2021/03/13 09:36:56;;;;;;;3.20;0.47;;;7.20;93.60;;;;;;5026873;28;20029;-82
2021/03/13 09:39:26;;;;;;;1.67;0.63;;;7.20;93.60;;;;;;5004582;28;20551;-82
2021/03/13 09:42:13;;;;;;;4.13;0.50;;;7.20;93.50;;;;;;5016850;28;20460;-83
2021/03/13 09:45:07;;;;;;;0.80;0.35;;;7.30;93.40;;;;;;5045334;28;20047;-82
2021/03/13 09:47:50;;;;;;;6.57;1.02;;;7.40;93.30;;;;;;5066572;28;20029;-82
2021/03/13 09:50:20;;;;;;;4.28;0.30;;;7.40;93.20;;;;;;5007632;28;20485;-83
2021/03/13 09:52:47;;;;;;;3.70;0.43;;;7.40;93.10;;;;;;5022667;28;20033;-83
2021/03/13 09:55:19;;;;;;;3.47;0.65;;;7.50;93.50;;;;;;5015891;28;20029;-83
2021/03/13 09:57:47;;;;;;;3.28;0.55;;;7.50;93.90;;;;;;5036905;28;20032;-82
2021/03/13 10:00:16;;;;;;;2.60;0.85;;;7.40;94.00;;;;;;5026757;28;20025;-82
2021/03/13 10:02:42;;;;;;;4.18;1.08;;;7.30;94.40;;;;;;5035613;28;20558;-82
2021/03/13 10:05:08;;;;;;;3.13;0.95;;;7.30;94.50;;;;;;5020364;28;20033;-82
2021/03/13 10:07:40;;;;;;;4.88;0.88;;;7.40;94.60;;;;;;5020405;28;20383;-82
2021/03/13 10:10:06;;;;;;;7.18;1.35;;;7.40;94.60;;;;;;5012228;28;20052;-82
2021/03/13 10:12:36;;;;;;;4.72;1.02;;;7.40;94.60;;;;;;5029936;28;20044;-83
2021/03/13 10:15:20;;;;;;;6.38;1.30;;;7.40;94.40;;;;;;5017082;28;20033;-82
2021/03/13 10:18:09;;;;;;;1.70;0.70;;;7.40;94.30;;;;;;5049735;28;20063;-83
2021/03/13 10:20:35;;;;;;;4.03;0.98;;;7.40;94.30;;;;;;5057494;28;20472;-82
2021/03/13 10:23:14;;;;;;;6.13;1.30;;;7.50;94.20;;;;;;5032875;28;20124;-82
2021/03/13 10:25:41;;;;;;;2.17;0.82;;;7.50;94.00;;;;;;5040558;28;20119;-81
2021/03/13 10:28:11;;;;;;;7.93;1.00;;;7.40;93.30;;;;;;5041438;28;20028;-82
2021/03/13 10:30:41;;;;;;;8.77;1.10;;;7.40;93.20;;;;;;5038060;28;20047;-83
2021/03/13 10:33:06;;;;;;;5.60;0.80;;;7.50;93.20;;;;;;5012319;28;20030;-82
2021/03/13 10:35:33;;;;;;;15.57;2.38;;;7.50;92.90;;;;;;5029052;28;20421;-83
2021/03/13 10:38:15;;;;;;;14.55;1.75;;;7.50;92.80;;;;;;5020111;28;20033;-82
2021/03/13 10:40:49;;;;;;;4.13;1.20;;;7.60;92.70;;;;;;5037786;28;20040;-83
2021/03/13 10:43:24;;;;;;;10.75;1.70;;;7.60;92.10;;;;;;5025840;28;20484;-82
2021/03/13 10:45:58;;;;;;;6.07;1.35;;;7.60;91.90;;;;;;5048387;28;20049;-83
2021/03/13 10:48:28;;;;;;;7.25;2.40;;;7.70;92.50;;;;;;5067223;28;20034;-82
2021/03/13 10:50:59;;;;;;;8.95;1.13;;;7.60;91.60;;;;;;5033568;28;20037;-83
2021/03/13 10:53:30;;;;;;;7.68;0.85;;;7.60;91.60;;;;;;5021695;28;20025;-83
2021/03/13 10:55:56;;;;;;;12.25;1.75;;;7.70;91.30;;;;;;5041608;28;20061;-83
2021/03/13 10:58:32;;;;;;;3.55;1.17;;;7.70;91.60;;;;;;5007686;28;20287;-83
2021/03/13 11:00:58;;;;;;;6.18;1.20;;;7.80;91.40;;;;;;5020342;28;20036;-83
2021/03/13 11:03:24;;;;;;;2.00;0.68;;;8.00;91.60;;;;;;5013160;28;20606;-83
2021/03/13 11:05:51;;;;;;;3.67;1.40;;;8.10;91.40;;;;;;5040187;28;20029;-83
2021/03/13 11:08:20;;;;;;;7.25;2.03;;;8.50;91.00;;;;;;5010137;28;20115;-82
2021/03/13 11:10:47;;;;;;;11.57;1.42;;;8.50;91.00;;;;;;5014380;28;20074;-83
2021/03/13 11:13:12;;;;;;;11.85;1.75;;;8.70;90.20;;;;;;5012721;28;20551;-82
2021/03/13 11:15:38;;;;;;;7.85;2.17;;;8.70;90.50;;;;;;5045442;28;20044;-83
2021/03/13 11:18:04;;;;;;;7.10;1.58;;;8.70;90.30;;;;;;5032661;28;20029;-83
2021/03/13 11:20:30;;;;;;;9.55;2.15;;;8.50;91.40;;;;;;5018725;28;20036;-81
2021/03/13 11:22:55;;;;;;;2.50;0.80;;;8.30;92.20;;;;;;5034471;28;20037;-83
2021/03/13 11:25:21;;;;;;;8.68;1.80;;;8.10;92.80;;;;;;5037550;28;20546;-84
2021/03/13 11:27:46;;;;;;;7.95;1.60;;;7.90;93.30;;;;;;5027127;28;20096;-84
2021/03/13 11:30:12;;;;;;;5.35;0.73;;;7.90;94.10;;;;;;5025902;28;20401;-83
2021/03/13 11:32:38;;;;;;;10.30;1.45;;;7.90;94.40;;;;;;5044967;28;20499;-84
2021/03/13 11:35:07;;;;;;;5.50;1.00;;;8.00;94.90;;;;;;5012651;28;20025;-84
2021/03/13 11:37:33;;;;;;;10.25;2.17;;;8.20;94.70;;;;;;5022786;28;20033;-85
2021/03/13 11:39:58;;;;;;;9.50;2.45;;;8.30;94.90;;;;;;5016323;28;20553;-85
2021/03/13 11:42:28;;;;;;;3.85;0.93;;;8.60;94.10;;;;;;5032938;28;20389;-83
2021/03/13 11:44:55;;;;;;;7.93;1.42;;;8.70;94.40;;;;;;5039071;28;20048;-85
2021/03/13 11:47:21;;;;;;;8.15;1.08;;;9.00;92.30;;;;;;5027564;28;20036;-84
2021/03/13 11:49:46;;;;;;;9.23;1.40;;;9.00;93.00;;;;;;5023031;28;20032;-85
2021/03/13 11:52:12;;;;;;;2.92;0.95;;;9.00;92.90;;;;;;5052264;28;20488;-84
2021/03/13 11:54:37;;;;;;;7.40;1.80;;;9.10;92.90;;;;;;5016175;28;20377;-83
2021/03/13 11:57:04;;;;;;;5.47;0.98;;;9.10;92.60;;;;;;5047928;28;20087;-84
2021/03/13 11:59:29;;;;;;;6.10;1.33;;;9.10;92.20;;;;;;5048938;28;20099;-83
2021/03/13 12:02:03;;;;;;;;;;;8.90;92.00;;;;;;4204777;28;10000533;-84
2021/03/13 12:04:28;;;;;;;6.95;1.17;;;8.90;92.30;;;;;;5038389;28;19916;-83
2021/03/13 12:06:54;;;;;;;8.00;1.15;;;8.80;92.60;;;;;;5032835;28;20033;-83
2021/03/13 12:09:19;;;;;;;7.03;1.50;;;8.70;93.20;;;;;;5023843;28;20029;-82
2021/03/13 12:11:45;;;;;;;10.82;2.25;;;8.70;93.70;;;;;;5034079;28;20040;-83
2021/03/13 12:14:10;;;;;;;13.90;1.88;;;8.80;93.90;;;;;;5014900;28;20069;-84
2021/03/13 12:16:36;;;;;;;7.47;1.85;;;8.90;93.00;;;;;;5020310;28;20033;-85
2021/03/13 12:19:02;;;;;;;7.38;2.17;;;8.90;92.50;;;;;;5013255;28;20075;-84
2021/03/13 12:21:27;;;;;;;5.05;1.85;;;8.70;92.70;;;;;;5014507;28;20515;-85
2021/03/13 12:23:53;;;;;;;4.57;1.63;;;8.90;92.40;;;;;;5033163;28;20029;-84
2021/03/13 12:26:18;;;;;;;6.72;1.75;;;9.00;92.20;;;;;;5020462;28;20406;-84
2021/03/13 12:28:44;;;;;;;5.65;1.15;;;9.20;91.60;;;;;;5024976;28;20095;-85
2021/03/13 12:31:10;;;;;;;8.90;1.25;;;9.20;91.40;;;;;;5017813;28;20072;-84
2021/03/13 12:33:35;;;;;;;10.63;1.38;;;9.10;91.40;;;;;;5021773;28;20488;-84
2021/03/13 12:36:02;;;;;;;6.93;1.30;;;9.20;91.20;;;;;;5019746;28;20048;-86
2021/03/13 12:38:48;;;;;;;7.43;1.17;;;9.20;90.70;;;;;;5003605;28;20481;-85
2021/03/13 12:41:13;;;;;;;7.85;2.08;;;9.10;90.60;;;;;;5035221;28;20116;-84
2021/03/13 12:43:39;;;;;;;10.07;2.03;;;9.00;90.60;;;;;;5035192;28;20119;-83
2021/03/13 12:46:05;;;;;;;7.63;1.58;;;8.80;91.30;;;;;;5020590;28;20060;-84
2021/03/13 12:48:30;;;;;;;8.55;1.88;;;8.50;92.20;;;;;;5017050;28;20025;-84
2021/03/13 12:51:01;;;;;;;7.05;1.92;;;8.20;92.90;;;;;;5017542;28;20362;-85
2021/03/13 12:53:36;;;;;;;2.63;0.60;;;7.90;93.40;;;;;;5016315;28;20025;-85
2021/03/13 12:56:02;;;;;;;2.20;0.52;;;7.60;93.60;;;;;;5010934;28;20124;-84
2021/03/13 12:58:28;;;;;;;9.02;1.00;;;7.70;94.20;;;;;;5014795;28;20429;-84
2021/03/13 13:00:53;;;;;;;5.03;1.20;;;7.70;94.20;;;;;;5030516;28;20029;-84